createdAt,value
2018-09-11T00:00:56.926Z,18.00
2018-09-11T00:01:56.824Z,18.03
2018-09-11T00:02:56.731Z,18.01
2018-09-11T00:03:56.630Z,17.95
2018-09-11T00:04:56.791Z,17.90
2018-09-11T00:05:56.446Z,18.00
2018-09-11T00:06:56.342Z,17.95
2018-09-11T00:07:56.253Z,18.07
2018-09-11T00:08:56.151Z,18.05
2018-09-11T00:09:56.058Z,17.98
2018-09-11T00:10:55.956Z,17.98
2018-09-11T00:11:55.867Z,17.97
2018-09-11T00:12:55.761Z,17.95
2018-09-11T00:13:55.670Z,18.00
2018-09-11T00:14:55.567Z,17.94
2018-09-11T00:15:55.477Z,17.92
2018-09-11T00:16:55.372Z,17.97
2018-09-11T00:17:55.281Z,17.98
2018-09-11T00:18:55.178Z,17.95
2018-09-11T00:19:55.089Z,17.94
2018-09-11T00:20:54.988Z,17.95
2018-09-11T00:21:54.893Z,17.98
2018-09-11T00:22:54.790Z,17.87
2018-09-11T00:23:54.700Z,17.94
2018-09-11T00:24:54.597Z,17.95
2018-09-11T00:25:54.505Z,17.90
2018-09-11T00:26:54.401Z,17.89
2018-09-11T00:27:54.312Z,17.89
2018-09-11T00:28:54.209Z,17.89
2018-09-11T00:29:54.116Z,17.94
2018-09-11T00:30:54.013Z,17.87
2018-09-11T00:31:53.924Z,17.92
2018-09-11T00:32:53.821Z,17.90
2018-09-11T00:33:53.728Z,17.90
2018-09-11T00:34:53.629Z,17.90
2018-09-11T00:35:53.535Z,17.94
2018-09-11T00:36:53.432Z,17.90
2018-09-11T00:37:53.342Z,17.98
2018-09-11T00:38:53.237Z,18.01
2018-09-11T00:39:53.147Z,18.03
2018-09-11T00:40:53.043Z,17.94
2018-09-11T00:41:52.952Z,17.97
2018-09-11T00:42:52.851Z,17.94
2018-09-11T00:43:52.759Z,17.92
2018-09-11T00:44:52.655Z,18.00
2018-09-11T00:45:52.564Z,17.95
2018-09-11T00:46:52.460Z,17.94
2018-09-11T00:47:52.372Z,17.98
2018-09-11T00:48:52.267Z,17.98
2018-09-11T00:49:52.176Z,17.94
2018-09-11T00:50:52.074Z,17.94
2018-09-11T00:51:52.023Z,17.98
2018-09-11T00:52:51.879Z,17.94
2018-09-11T00:53:51.789Z,18.01
2018-09-11T00:54:51.685Z,17.95
2018-09-11T00:55:51.594Z,18.01
2018-09-11T00:56:51.491Z,17.95
2018-09-11T00:57:51.399Z,18.03
2018-09-11T00:58:51.297Z,18.01
2018-09-11T00:59:51.206Z,18.01
2018-09-11T01:00:51.103Z,18.03
2018-09-11T01:01:51.011Z,17.94
2018-09-11T01:02:50.907Z,17.98
2018-09-11T01:03:50.819Z,17.97
2018-09-11T01:04:50.714Z,17.94
2018-09-11T01:05:50.622Z,17.95
2018-09-11T01:06:50.523Z,18.01
2018-09-11T01:07:50.429Z,17.95
2018-09-11T01:08:50.326Z,17.86
2018-09-11T01:09:50.235Z,17.94
2018-09-11T01:10:50.132Z,17.94
2018-09-11T01:11:50.042Z,17.95
2018-09-11T01:12:49.937Z,17.87
2018-09-11T01:13:49.849Z,17.89
2018-09-11T01:14:49.743Z,17.86
2018-09-11T01:15:49.657Z,17.95
2018-09-11T01:16:49.549Z,17.90
2018-09-11T01:17:49.463Z,17.92
2018-09-11T01:18:49.355Z,17.92
2018-09-11T01:19:49.265Z,17.92
2018-09-11T01:20:49.162Z,17.94
2018-09-11T01:21:49.074Z,17.94
2018-09-11T01:22:48.967Z,17.95
2018-09-11T01:23:48.876Z,17.90
2018-09-11T01:24:48.773Z,17.89
2018-09-11T01:25:48.682Z,17.82
2018-09-11T01:26:48.579Z,17.95
2018-09-11T01:27:48.488Z,17.83
2018-09-11T01:28:48.384Z,17.79
2018-09-11T01:29:48.293Z,17.85
2018-09-11T01:30:48.191Z,17.85
2018-09-11T01:31:48.103Z,17.74
2018-09-11T01:32:47.997Z,17.74
2018-09-11T01:33:47.906Z,17.82
2018-09-11T01:34:47.804Z,17.72
2018-09-11T01:35:47.712Z,17.78
2018-09-11T01:36:47.611Z,17.70
2018-09-11T01:37:47.517Z,17.70
2018-09-11T01:38:47.415Z,17.82
2018-09-11T01:39:47.623Z,17.76
2018-09-11T01:40:47.231Z,17.72
2018-09-11T01:41:47.128Z,17.85
2018-09-11T01:42:47.039Z,17.72
2018-09-11T01:43:46.936Z,17.76
2018-09-11T01:44:46.845Z,17.78
2018-09-11T01:45:46.741Z,17.89
2018-09-11T01:46:46.652Z,17.80
2018-09-11T01:47:46.550Z,17.79
2018-09-11T01:48:46.456Z,17.80
2018-09-11T01:49:46.352Z,17.72
2018-09-11T01:50:46.264Z,17.74
2018-09-11T01:51:46.160Z,17.68
2018-09-11T01:52:46.068Z,17.74
2018-09-11T01:53:45.964Z,17.65
2018-09-11T01:54:45.875Z,17.74
2018-09-11T01:55:45.771Z,17.64
2018-09-11T01:56:45.679Z,17.72
2018-09-11T01:57:45.577Z,17.76
2018-09-11T01:58:45.486Z,17.67
2018-09-11T01:59:45.383Z,17.74
2018-09-11T02:00:45.292Z,17.74
2018-09-11T02:01:45.193Z,17.76
2018-09-11T02:02:45.099Z,17.85
2018-09-11T02:03:44.996Z,17.72
2018-09-11T02:04:45.205Z,17.71
2018-09-11T02:05:44.814Z,17.78
2018-09-11T02:06:44.711Z,17.89
2018-09-11T02:07:44.608Z,17.83
2018-09-11T02:08:44.515Z,17.71
2018-09-11T02:09:44.415Z,17.76
2018-09-11T02:10:44.321Z,17.70
2018-09-11T02:11:44.218Z,17.60
2018-09-11T02:12:44.127Z,17.57
2018-09-11T02:13:44.026Z,17.67
2018-09-11T02:14:43.934Z,17.59
2018-09-11T02:15:43.831Z,17.63
2018-09-11T02:16:43.741Z,17.48
2018-09-11T02:17:43.647Z,17.45
2018-09-11T02:18:43.545Z,17.44
2018-09-11T02:19:43.442Z,17.48
2018-09-11T02:20:43.351Z,17.39
2018-09-11T02:21:43.247Z,17.48
2018-09-11T02:22:43.157Z,17.46
2018-09-11T02:23:43.055Z,17.49
2018-09-11T02:24:42.962Z,17.42
2018-09-11T02:25:42.860Z,17.45
2018-09-11T02:26:42.769Z,17.39
2018-09-11T02:27:42.664Z,17.44
2018-09-11T02:28:42.573Z,17.42
2018-09-11T02:29:42.471Z,17.45
2018-09-11T02:30:42.381Z,17.45
2018-09-11T02:31:42.278Z,17.45
2018-09-11T02:32:42.186Z,17.45
2018-09-11T02:33:42.083Z,17.46
2018-09-11T02:34:41.995Z,17.45
2018-09-11T02:35:41.996Z,17.46
2018-09-11T02:36:41.798Z,17.51
2018-09-11T02:37:41.694Z,17.46
2018-09-11T02:38:41.604Z,17.65
2018-09-11T02:39:41.752Z,17.68
2018-09-11T02:40:41.410Z,17.65
2018-09-11T02:41:41.306Z,17.60
2018-09-11T02:42:41.218Z,17.59
2018-09-11T02:43:41.113Z,17.70
2018-09-11T02:44:41.021Z,17.71
2018-09-11T02:45:40.918Z,17.60
2018-09-11T02:46:40.833Z,17.63
2018-09-11T02:47:40.725Z,17.63
2018-09-11T02:48:40.636Z,17.56
2018-09-11T02:49:40.531Z,17.64
2018-09-11T02:50:40.439Z,17.59
2018-09-11T02:51:40.336Z,17.63
2018-09-11T02:52:40.244Z,17.59
2018-09-11T02:53:40.142Z,17.67
2018-09-11T02:54:40.051Z,17.80
2018-09-11T02:55:39.948Z,17.83
2018-09-11T02:56:39.856Z,17.82
2018-09-11T02:57:39.753Z,17.87
2018-09-11T02:58:39.665Z,17.85
2018-09-11T02:59:39.560Z,17.86
2018-09-11T03:00:39.468Z,17.89
2018-09-11T03:01:39.365Z,17.85
2018-09-11T03:02:39.274Z,17.92
2018-09-11T03:03:39.171Z,17.83
2018-09-11T03:04:39.093Z,17.85
2018-09-11T03:05:38.976Z,17.89
2018-09-11T03:06:38.891Z,17.97
2018-09-11T03:07:38.785Z,17.87
2018-09-11T03:08:38.692Z,17.94
2018-09-11T03:09:38.588Z,17.82
2018-09-11T03:10:38.499Z,17.83
2018-09-11T03:11:38.397Z,17.83
2018-09-11T03:12:38.304Z,17.87
2018-09-11T03:13:38.201Z,17.82
2018-09-11T03:14:38.109Z,17.82
2018-09-11T03:15:38.006Z,17.86
2018-09-11T03:16:37.915Z,17.83
2018-09-11T03:17:37.825Z,17.82
2018-09-11T03:18:37.721Z,17.85
2018-09-11T03:19:37.869Z,17.85
2018-09-11T03:20:37.516Z,17.74
2018-09-11T03:21:37.423Z,17.83
2018-09-11T03:22:37.323Z,17.85
2018-09-11T03:23:37.231Z,17.86
2018-09-11T03:24:37.128Z,17.89
2018-09-11T03:25:37.034Z,17.85
2018-09-11T03:26:36.945Z,17.80
2018-09-11T03:27:36.842Z,17.92
2018-09-11T03:28:36.750Z,17.86
2018-09-11T03:29:36.647Z,17.89
2018-09-11T03:30:36.556Z,17.95
2018-09-11T03:31:36.453Z,17.86
2018-09-11T03:32:36.362Z,17.95
2018-09-11T03:33:36.258Z,17.95
2018-09-11T03:34:36.168Z,17.97
2018-09-11T03:35:36.065Z,17.92
2018-09-11T03:36:35.975Z,17.87
2018-09-11T03:37:35.870Z,17.94
2018-09-11T03:38:35.786Z,18.01
2018-09-11T03:39:35.677Z,17.95
2018-09-11T03:40:35.586Z,17.92
2018-09-11T03:41:35.485Z,17.92
2018-09-11T03:42:35.392Z,17.94
2018-09-11T03:43:35.290Z,17.89
2018-09-11T03:44:35.199Z,17.92
2018-09-11T03:45:35.094Z,17.94
2018-09-11T03:46:35.004Z,18.00
2018-09-11T03:47:34.901Z,17.86
2018-09-11T03:48:34.823Z,17.94
2018-09-11T03:49:34.706Z,17.87
2018-09-11T03:50:34.616Z,17.90
2018-09-11T03:51:34.513Z,17.90
2018-09-11T03:52:34.421Z,17.92
2018-09-11T03:53:34.318Z,17.85
2018-09-11T03:54:34.229Z,17.79
2018-09-11T03:55:34.124Z,17.86
2018-09-11T03:56:34.035Z,17.90
2018-09-11T03:57:33.929Z,17.94
2018-09-11T03:58:33.839Z,17.89
2018-09-11T03:59:33.986Z,17.89
2018-09-11T04:00:33.644Z,17.89
2018-09-11T04:01:33.542Z,17.92
2018-09-11T04:02:33.451Z,17.92
2018-09-11T04:03:33.355Z,17.82
2018-09-11T04:04:33.257Z,17.86
2018-09-11T04:05:33.321Z,17.85
2018-09-11T04:06:33.063Z,17.78
2018-09-11T04:07:32.960Z,17.79
2018-09-11T04:08:32.868Z,17.90
2018-09-11T04:09:32.779Z,17.83
2018-09-11T04:10:32.675Z,17.83
2018-09-11T04:11:32.571Z,17.79
2018-09-11T04:12:32.479Z,17.78
2018-09-11T04:13:32.377Z,17.90
2018-09-11T04:14:32.286Z,17.79
2018-09-11T04:15:32.187Z,17.83
2018-09-11T04:16:32.092Z,17.70
2018-09-11T04:17:31.988Z,17.74
2018-09-11T04:18:31.900Z,17.78
2018-09-11T04:19:31.799Z,17.72
2018-09-11T04:20:31.703Z,17.74
2018-09-11T04:21:31.600Z,17.72
2018-09-11T04:22:31.509Z,17.72
2018-09-11T04:23:31.407Z,17.72
2018-09-11T04:24:31.315Z,17.65
2018-09-11T04:25:31.239Z,17.67
2018-09-11T04:26:31.121Z,17.65
2018-09-11T04:27:31.020Z,17.68
2018-09-11T04:28:30.927Z,17.79
2018-09-11T04:29:30.825Z,17.70
2018-09-11T04:30:30.733Z,17.76
2018-09-11T04:31:30.630Z,17.82
2018-09-11T04:32:30.538Z,17.87
2018-09-11T04:33:30.436Z,17.83
2018-09-11T04:34:30.345Z,17.87
2018-09-11T04:35:30.253Z,17.94
2018-09-11T04:36:30.242Z,17.90
2018-09-11T04:37:30.054Z,17.97
2018-09-11T04:38:29.956Z,17.94
2018-09-11T04:39:29.865Z,17.90
2018-09-11T04:40:29.765Z,17.95
2018-09-11T04:41:29.672Z,17.98
2018-09-11T04:42:29.571Z,18.00
2018-09-11T04:43:29.477Z,18.04
2018-09-11T04:44:29.374Z,18.01
2018-09-11T04:45:29.284Z,18.00
2018-09-11T04:46:29.182Z,18.04
2018-09-11T04:47:29.093Z,18.05
2018-09-11T04:48:28.990Z,18.01
2018-09-11T04:49:28.896Z,18.04
2018-09-11T04:50:28.792Z,18.04
2018-09-11T04:51:28.700Z,18.04
2018-09-11T04:52:28.598Z,18.04
2018-09-11T04:53:28.510Z,18.03
2018-09-11T04:54:28.404Z,18.01
2018-09-11T04:55:28.313Z,18.08
2018-09-11T04:56:28.209Z,18.10
2018-09-11T04:57:28.120Z,18.10
2018-09-11T04:58:28.016Z,18.16
2018-09-11T04:59:27.925Z,18.15
2018-09-11T05:00:27.822Z,18.11
2018-09-11T05:01:27.731Z,18.18
2018-09-11T05:02:27.627Z,18.15
2018-09-11T05:03:27.536Z,18.15
2018-09-11T05:04:27.732Z,18.13
2018-09-11T05:05:27.343Z,18.13
2018-09-11T05:06:27.240Z,18.08
2018-09-11T05:07:27.148Z,18.16
2018-09-11T05:08:27.045Z,18.11
2018-09-11T05:09:26.955Z,18.08
2018-09-11T05:10:26.850Z,18.18
2018-09-11T05:11:26.759Z,18.16
2018-09-11T05:12:26.656Z,18.26
2018-09-11T05:13:26.566Z,18.25
2018-09-11T05:14:26.463Z,18.38
2018-09-11T05:15:26.373Z,18.43
2018-09-11T05:16:26.268Z,18.38
2018-09-11T05:17:26.179Z,18.40
2018-09-11T05:18:26.077Z,18.45
2018-09-11T05:19:25.983Z,18.35
2018-09-11T05:20:25.881Z,18.34
2018-09-11T05:21:25.791Z,18.29
2018-09-11T05:22:25.699Z,18.49
2018-09-11T05:23:25.600Z,18.43
2018-09-11T05:24:25.519Z,18.38
2018-09-11T05:25:25.402Z,18.35
2018-09-11T05:26:25.313Z,18.45
2018-09-11T05:27:25.211Z,18.45
2018-09-11T05:28:25.116Z,18.41
2018-09-11T05:29:25.026Z,18.44
2018-09-11T05:30:24.921Z,18.49
2018-09-11T05:31:24.818Z,18.52
2018-09-11T05:32:24.728Z,18.55
2018-09-11T05:33:24.626Z,18.58
2018-09-11T05:34:24.534Z,18.62
2018-09-11T05:35:24.431Z,18.63
2018-09-11T05:36:24.340Z,18.62
2018-09-11T05:37:24.237Z,18.66
2018-09-11T05:38:24.148Z,18.71
2018-09-11T05:39:24.044Z,18.71
2018-09-11T05:40:23.953Z,18.68
2018-09-11T05:41:23.861Z,18.65
2018-09-11T05:42:23.757Z,18.74
2018-09-11T05:43:23.667Z,18.80
2018-09-11T05:44:23.813Z,18.84
2018-09-11T05:45:23.472Z,18.88
2018-09-11T05:46:23.372Z,18.90
2018-09-11T05:47:23.280Z,18.84
2018-09-11T05:48:23.176Z,18.86
2018-09-11T05:49:23.084Z,18.78
2018-09-11T05:50:22.980Z,18.71
2018-09-11T05:51:22.890Z,18.70
2018-09-11T05:52:22.795Z,18.77
2018-09-11T05:53:22.695Z,18.75
2018-09-11T05:54:22.593Z,18.71
2018-09-11T05:55:22.502Z,18.70
2018-09-11T05:56:22.401Z,18.75
2018-09-11T05:57:22.308Z,18.71
2018-09-11T05:58:22.240Z,18.80
2018-09-11T05:59:22.114Z,18.73
2018-09-11T06:00:22.023Z,18.75
2018-09-11T06:01:21.919Z,18.75
2018-09-11T06:02:21.829Z,18.89
2018-09-11T06:03:21.726Z,18.86
2018-09-11T06:04:21.642Z,18.95
2018-09-11T06:05:21.531Z,18.98
2018-09-11T06:06:21.447Z,19.04
2018-09-11T06:07:21.338Z,19.12
2018-09-11T06:08:21.245Z,19.15
2018-09-11T06:09:21.144Z,19.14
2018-09-11T06:10:21.053Z,19.26
2018-09-11T06:11:20.961Z,19.31
2018-09-11T06:12:20.858Z,19.34
2018-09-11T06:13:20.776Z,19.49
2018-09-11T06:14:20.664Z,19.52
2018-09-11T06:15:20.575Z,19.49
2018-09-11T06:16:20.492Z,19.51
2018-09-11T06:17:20.379Z,19.64
2018-09-11T06:18:20.290Z,19.69
2018-09-11T06:19:20.187Z,19.76
2018-09-11T06:20:20.094Z,19.82
2018-09-11T06:21:19.990Z,19.88
2018-09-11T06:22:19.899Z,19.94
2018-09-11T06:23:19.797Z,19.95
2018-09-11T06:24:19.707Z,20.03
2018-09-11T06:25:19.615Z,20.10
2018-09-11T06:26:19.512Z,20.16
2018-09-11T06:27:19.421Z,20.18
2018-09-11T06:28:19.317Z,20.26
2018-09-11T06:29:19.321Z,20.36
2018-09-11T06:30:19.137Z,20.32
2018-09-11T06:31:19.033Z,20.25
2018-09-11T06:32:18.942Z,20.26
2018-09-11T06:33:18.851Z,20.22
2018-09-11T06:34:18.749Z,20.25
2018-09-11T06:35:18.698Z,20.26
2018-09-11T06:36:18.553Z,20.43
2018-09-11T06:37:18.462Z,20.28
2018-09-11T06:38:18.361Z,20.34
2018-09-11T06:39:18.269Z,20.41
2018-09-11T06:40:18.178Z,20.52
2018-09-11T06:41:18.131Z,20.70
2018-09-11T06:42:17.983Z,20.66
2018-09-11T06:43:17.894Z,20.63
2018-09-11T06:44:17.793Z,20.69
2018-09-11T06:45:17.699Z,20.63
2018-09-11T06:46:17.597Z,20.69
2018-09-11T06:47:17.507Z,20.78
2018-09-11T06:48:17.413Z,20.84
2018-09-11T06:49:17.310Z,20.88
2018-09-11T06:50:17.222Z,21.00
2018-09-11T06:51:17.142Z,20.99
2018-09-11T06:52:17.025Z,21.17
2018-09-11T06:53:16.959Z,21.20
2018-09-11T06:54:16.843Z,21.27
2018-09-11T06:55:16.740Z,21.45
2018-09-11T06:56:16.650Z,21.42
2018-09-11T06:57:16.559Z,21.58
2018-09-11T06:58:16.455Z,21.52
2018-09-11T06:59:16.365Z,21.67
2018-09-11T07:00:16.276Z,21.69
2018-09-11T07:01:16.171Z,21.82
2018-09-11T07:02:16.081Z,21.92
2018-09-11T07:03:16.006Z,22.08
2018-09-11T07:04:15.886Z,22.17
2018-09-11T07:05:15.796Z,22.23
2018-09-11T07:06:15.703Z,22.32
2018-09-11T07:07:15.601Z,22.38
2018-09-11T07:08:15.511Z,22.53
2018-09-11T07:09:15.418Z,22.57
2018-09-11T07:10:15.331Z,22.47
2018-09-11T07:11:15.226Z,22.47
2018-09-11T07:12:15.135Z,22.50
2018-09-11T07:13:15.044Z,22.66
2018-09-11T07:14:14.940Z,22.70
2018-09-11T07:15:14.850Z,22.78
2018-09-11T07:16:14.759Z,22.99
2018-09-11T07:17:14.667Z,22.96
2018-09-11T07:18:14.565Z,22.91
2018-09-11T07:19:15.279Z,22.87
2018-09-11T07:20:14.743Z,23.00
2018-09-11T07:21:14.292Z,22.88
2018-09-11T07:22:14.189Z,22.87
2018-09-11T07:23:14.099Z,22.88
2018-09-11T07:24:14.008Z,22.80
2018-09-11T07:25:13.916Z,22.69
2018-09-11T07:26:13.840Z,22.81
2018-09-11T07:27:13.724Z,22.76
2018-09-11T07:28:13.631Z,22.87
2018-09-11T07:29:13.541Z,22.78
2018-09-11T07:30:13.443Z,22.68
2018-09-11T07:31:13.346Z,22.66
2018-09-11T07:32:13.257Z,22.51
2018-09-11T07:33:13.164Z,22.47
2018-09-11T07:34:13.064Z,22.35
2018-09-11T07:35:12.972Z,22.30
2018-09-11T07:36:12.889Z,22.47
2018-09-11T07:37:12.789Z,22.51
2018-09-11T07:38:12.698Z,22.51
2018-09-11T07:39:13.394Z,22.54
2018-09-11T07:40:12.506Z,22.53
2018-09-11T07:41:12.426Z,22.59
2018-09-11T07:42:12.324Z,22.66
2018-09-11T07:43:12.220Z,22.65
2018-09-11T07:44:12.129Z,22.76
2018-09-11T07:45:12.038Z,22.87
2018-09-11T07:46:11.947Z,22.98
2018-09-11T07:47:11.845Z,23.00
2018-09-11T07:48:11.753Z,23.05
2018-09-11T07:49:11.663Z,23.08
2018-09-11T07:50:11.572Z,23.17
2018-09-11T07:51:11.469Z,23.17
2018-09-11T07:52:11.377Z,23.28
2018-09-11T07:53:11.287Z,23.32
2018-09-11T07:54:11.197Z,23.48
2018-09-11T07:55:11.092Z,23.55
2018-09-11T07:56:11.003Z,23.74
2018-09-11T07:57:10.911Z,23.78
2018-09-11T07:58:10.855Z,23.77
2018-09-11T07:59:10.967Z,23.92
2018-09-11T08:00:10.626Z,23.74
2018-09-11T08:01:10.535Z,23.77
2018-09-11T08:02:10.444Z,23.81
2018-09-11T08:03:10.367Z,23.78
2018-09-11T08:04:10.275Z,23.74
2018-09-11T08:05:10.212Z,23.76
2018-09-11T08:06:10.070Z,23.71
2018-09-11T08:07:09.978Z,23.66
2018-09-11T08:08:09.874Z,23.61
2018-09-11T08:09:09.788Z,23.43
2018-09-11T08:10:09.692Z,23.18
2018-09-11T08:11:09.606Z,23.31
2018-09-11T08:12:09.520Z,23.24
2018-09-11T08:13:09.410Z,23.28
2018-09-11T08:14:09.318Z,23.24
2018-09-11T08:15:09.226Z,23.24
2018-09-11T08:16:09.138Z,23.31
2018-09-11T08:17:09.033Z,23.28
2018-09-11T08:18:08.941Z,23.25
2018-09-11T08:19:09.103Z,23.28
2018-09-11T08:20:08.798Z,23.37
2018-09-11T08:21:08.671Z,23.43
2018-09-11T08:22:08.567Z,23.41
2018-09-11T08:23:08.479Z,23.40
2018-09-11T08:24:08.384Z,23.47
2018-09-11T08:25:08.306Z,23.44
2018-09-11T08:26:08.190Z,23.31
2018-09-11T08:27:08.100Z,23.21
2018-09-11T08:28:08.008Z,23.10
2018-09-11T08:29:07.919Z,23.21
2018-09-11T08:30:07.816Z,23.24
2018-09-11T08:31:07.723Z,23.27
2018-09-11T08:32:07.633Z,23.43
2018-09-11T08:33:07.542Z,23.43
2018-09-11T08:34:07.442Z,23.55
2018-09-11T08:35:07.357Z,23.62
2018-09-11T08:36:07.262Z,23.66
2018-09-11T08:37:07.167Z,23.55
2018-09-11T08:38:07.076Z,23.48
2018-09-11T08:39:06.972Z,23.62
2018-09-11T08:40:06.881Z,23.56
2018-09-11T08:41:06.809Z,23.63
2018-09-11T08:42:06.711Z,23.86
2018-09-11T08:43:06.598Z,23.93
2018-09-11T08:44:06.507Z,24.03
2018-09-11T08:45:06.416Z,24.16
2018-09-11T08:46:06.324Z,24.16
2018-09-11T08:47:06.220Z,24.26
2018-09-11T08:48:06.131Z,24.26
2018-09-11T08:49:06.039Z,24.10
2018-09-11T08:50:05.951Z,24.01
2018-09-11T08:51:05.857Z,24.03
2018-09-11T08:52:05.818Z,24.14
2018-09-11T08:53:05.664Z,23.96
2018-09-11T08:54:05.573Z,24.01
2018-09-11T08:55:05.471Z,24.18
2018-09-11T08:56:05.379Z,24.29
2018-09-11T08:57:05.287Z,24.51
2018-09-11T08:58:05.197Z,24.54
2018-09-11T08:59:05.107Z,24.43
2018-09-11T09:00:05.003Z,24.38
2018-09-11T09:01:04.913Z,24.40
2018-09-11T09:02:04.824Z,24.48
2018-09-11T09:03:04.736Z,24.40
2018-09-11T09:04:04.653Z,24.42
2018-09-11T09:05:04.549Z,24.45
2018-09-11T09:06:04.446Z,24.33
2018-09-11T09:07:04.355Z,24.28
2018-09-11T09:08:04.265Z,24.32
2018-09-11T09:09:04.185Z,24.47
2018-09-11T09:10:04.176Z,24.47
2018-09-11T09:11:03.980Z,24.65
2018-09-11T09:12:03.888Z,24.66
2018-09-11T09:13:03.798Z,24.60
2018-09-11T09:14:03.706Z,24.57
2018-09-11T09:15:03.604Z,24.73
2018-09-11T09:16:03.513Z,24.74
2018-09-11T09:17:03.421Z,24.76
2018-09-11T09:18:03.333Z,24.81
2018-09-11T09:19:03.240Z,25.04
2018-09-11T09:20:03.138Z,25.06
2018-09-11T09:21:03.149Z,25.11
2018-09-11T09:22:02.991Z,25.41
2018-09-11T09:23:02.865Z,25.53
2018-09-11T09:24:02.773Z,25.59
2018-09-11T09:25:02.688Z,25.63
2018-09-11T09:26:02.591Z,25.75
2018-09-11T09:27:02.550Z,25.70
2018-09-11T09:28:02.402Z,25.68
2018-09-11T09:29:02.307Z,25.59
2018-09-11T09:30:02.218Z,25.38
2018-09-11T09:31:02.125Z,25.47
2018-09-11T09:32:02.038Z,25.48
2018-09-11T09:33:01.947Z,25.65
2018-09-11T09:34:01.857Z,25.81
2018-09-11T09:35:01.751Z,25.88
2018-09-11T09:36:01.659Z,25.98
2018-09-11T09:37:01.692Z,26.03
2018-09-11T09:38:01.477Z,25.87
2018-09-11T09:39:01.400Z,25.60
2018-09-11T09:40:01.296Z,25.78
2018-09-11T09:41:01.205Z,25.77
2018-09-11T09:42:01.114Z,26.02
2018-09-11T09:43:01.024Z,26.05
2018-09-11T09:44:00.948Z,25.81
2018-09-11T09:45:00.842Z,25.66
2018-09-11T09:46:00.752Z,25.50
2018-09-11T09:47:00.649Z,25.43
2018-09-11T09:48:00.556Z,25.81
2018-09-11T09:49:00.469Z,25.91
2018-09-11T09:50:00.376Z,26.06
2018-09-11T09:51:00.360Z,26.21
2018-09-11T09:52:00.194Z,26.22
2018-09-11T09:53:00.104Z,26.23
2018-09-11T09:54:00.013Z,26.15
2018-09-11T09:54:59.921Z,26.07
2018-09-11T09:55:59.830Z,26.07
2018-09-11T09:56:59.738Z,26.07
2018-09-11T09:57:59.650Z,25.88
2018-09-11T09:58:59.558Z,25.95
2018-09-11T09:59:59.468Z,26.15
2018-09-11T10:00:59.376Z,26.13
2018-09-11T10:01:59.287Z,26.06
2018-09-11T10:02:59.201Z,26.07
2018-09-11T10:03:59.106Z,26.06
2018-09-11T10:04:59.043Z,26.22
2018-09-11T10:05:58.923Z,26.16
2018-09-11T10:06:58.830Z,26.25
2018-09-11T10:07:58.740Z,26.21
2018-09-11T10:08:58.662Z,26.18
2018-09-11T10:09:58.559Z,26.16
2018-09-11T10:10:58.467Z,26.19
2018-09-11T10:11:58.366Z,26.06
2018-09-11T10:12:58.286Z,26.21
2018-09-11T10:13:58.182Z,26.13
2018-09-11T10:14:58.093Z,26.09
2018-09-11T10:15:58.000Z,25.90
2018-09-11T10:16:57.910Z,25.68
2018-09-11T10:17:57.819Z,25.81
2018-09-11T10:18:57.729Z,25.66
2018-09-11T10:19:57.637Z,25.62
2018-09-11T10:20:57.550Z,25.65
2018-09-11T10:21:57.456Z,25.63
2018-09-11T10:22:57.366Z,25.50
2018-09-11T10:23:57.274Z,25.65
2018-09-11T10:24:57.184Z,25.48
2018-09-11T10:25:57.092Z,25.65
2018-09-11T10:26:57.003Z,25.63
2018-09-11T10:27:56.912Z,25.68
2018-09-11T10:28:56.809Z,25.46
2018-09-11T10:29:56.719Z,25.46
2018-09-11T10:30:56.626Z,25.47
2018-09-11T10:31:56.536Z,25.48
2018-09-11T10:32:56.457Z,25.68
2018-09-11T10:33:56.354Z,25.68
2018-09-11T10:34:56.263Z,25.70
2018-09-11T10:35:56.177Z,25.84
2018-09-11T10:36:56.081Z,25.87
2018-09-11T10:37:55.992Z,26.06
2018-09-11T10:38:56.199Z,26.13
2018-09-11T10:39:55.797Z,26.15
2018-09-11T10:40:55.718Z,26.21
2018-09-11T10:41:55.614Z,26.16
2018-09-11T10:42:55.526Z,26.25
2018-09-11T10:43:55.433Z,26.22
2018-09-11T10:44:55.377Z,26.21
2018-09-11T10:45:55.251Z,26.13
2018-09-11T10:46:55.198Z,26.10
2018-09-11T10:47:55.058Z,26.21
2018-09-11T10:48:55.027Z,25.96
2018-09-11T10:49:54.877Z,26.02
2018-09-11T10:50:54.785Z,26.07
2018-09-11T10:51:54.788Z,26.03
2018-09-11T10:52:54.604Z,26.25
2018-09-11T10:53:54.513Z,26.10
2018-09-11T10:54:54.424Z,25.90
2018-09-11T10:55:54.321Z,25.81
2018-09-11T10:56:54.229Z,25.99
2018-09-11T10:57:54.138Z,25.90
2018-09-11T10:58:54.051Z,25.98
2018-09-11T10:59:53.956Z,26.07
2018-09-11T11:00:53.866Z,26.22
2018-09-11T11:01:53.773Z,26.26
2018-09-11T11:02:53.686Z,26.41
2018-09-11T11:03:53.581Z,26.58
2018-09-11T11:04:53.490Z,26.23
2018-09-11T11:05:53.399Z,26.29
2018-09-11T11:06:53.308Z,26.23
2018-09-11T11:07:53.217Z,26.23
2018-09-11T11:08:53.126Z,26.40
2018-09-11T11:09:53.037Z,26.34
2018-09-11T11:10:52.944Z,26.43
2018-09-11T11:11:52.841Z,26.41
2018-09-11T11:12:52.750Z,26.51
2018-09-11T11:13:52.659Z,26.55
2018-09-11T11:14:52.570Z,26.65
2018-09-11T11:15:52.478Z,26.58
2018-09-11T11:16:52.392Z,26.65
2018-09-11T11:17:52.296Z,26.80
2018-09-11T11:18:52.207Z,26.77
2018-09-11T11:19:52.114Z,26.80
2018-09-11T11:20:52.012Z,26.63
2018-09-11T11:21:51.921Z,26.73
2018-09-11T11:22:51.831Z,26.85
2018-09-11T11:23:51.739Z,26.81
2018-09-11T11:24:51.647Z,26.95
2018-09-11T11:25:51.558Z,27.02
2018-09-11T11:26:51.516Z,27.29
2018-09-11T11:27:51.376Z,27.37
2018-09-11T11:28:51.298Z,27.26
2018-09-11T11:29:51.196Z,27.21
2018-09-11T11:30:51.103Z,27.20
2018-09-11T11:31:51.001Z,27.21
2018-09-11T11:32:50.910Z,27.02
2018-09-11T11:33:50.832Z,26.93
2018-09-11T11:34:50.729Z,27.12
2018-09-11T11:35:50.639Z,27.22
2018-09-11T11:36:50.664Z,27.25
2018-09-11T11:37:50.455Z,27.22
2018-09-11T11:38:50.366Z,27.36
2018-09-11T11:39:50.274Z,27.42
2018-09-11T11:40:50.187Z,27.40
2018-09-11T11:41:50.114Z,27.39
2018-09-11T11:42:50.060Z,27.40
2018-09-11T11:43:49.910Z,27.40
2018-09-11T11:44:49.821Z,27.47
2018-09-11T11:45:49.728Z,27.45
2018-09-11T11:46:49.640Z,27.54
2018-09-11T11:47:49.551Z,27.48
2018-09-11T11:48:49.457Z,27.65
2018-09-11T11:49:49.370Z,27.75
2018-09-11T11:50:49.275Z,27.49
2018-09-11T11:51:49.183Z,27.59
2018-09-11T11:52:49.081Z,27.36
2018-09-11T11:53:48.991Z,27.25
2018-09-11T11:54:48.903Z,27.17
2018-09-11T11:55:48.812Z,27.22
2018-09-11T11:56:48.717Z,27.37
2018-09-11T11:57:48.628Z,27.45
2018-09-11T11:58:48.536Z,27.67
2018-09-11T11:59:48.445Z,27.74
2018-09-11T12:00:48.355Z,27.82
2018-09-11T12:01:48.268Z,27.71
2018-09-11T12:02:48.172Z,27.74
2018-09-11T12:03:48.082Z,27.67
2018-09-11T12:04:47.993Z,27.63
2018-09-11T12:05:47.899Z,27.58
2018-09-11T12:06:47.808Z,27.54
2018-09-11T12:07:47.767Z,27.67
2018-09-11T12:08:47.627Z,27.51
2018-09-11T12:09:47.536Z,27.44
2018-09-11T12:10:47.446Z,27.36
2018-09-11T12:11:47.355Z,27.37
2018-09-11T12:12:47.277Z,27.22
2018-09-11T12:13:47.176Z,27.14
2018-09-11T12:14:47.083Z,27.11
2018-09-11T12:15:46.994Z,27.27
2018-09-11T12:16:46.952Z,27.40
2018-09-11T12:17:46.811Z,27.44
2018-09-11T12:18:46.718Z,27.39
2018-09-11T12:19:46.628Z,27.51
2018-09-11T12:20:46.540Z,27.59
2018-09-11T12:21:46.447Z,27.70
2018-09-11T12:22:46.360Z,27.70
2018-09-11T12:23:46.267Z,27.60
2018-09-11T12:24:46.173Z,27.39
2018-09-11T12:25:46.085Z,27.12
2018-09-11T12:26:46.001Z,27.10
2018-09-11T12:27:45.903Z,26.89
2018-09-11T12:28:45.812Z,26.85
2018-09-11T12:29:45.721Z,26.83
2018-09-11T12:30:45.629Z,26.70
2018-09-11T12:31:45.540Z,26.63
2018-09-11T12:32:45.449Z,26.68
2018-09-11T12:33:45.358Z,26.53
2018-09-11T12:34:45.266Z,26.51
2018-09-11T12:35:45.176Z,26.44
2018-09-11T12:36:45.085Z,26.41
2018-09-11T12:37:44.995Z,26.52
2018-09-11T12:38:44.904Z,26.51
2018-09-11T12:39:44.813Z,26.34
2018-09-11T12:40:44.722Z,26.31
2018-09-11T12:41:44.620Z,26.40
2018-09-11T12:42:44.529Z,26.40
2018-09-11T12:43:44.438Z,26.33
2018-09-11T12:44:44.347Z,26.36
2018-09-11T12:45:44.297Z,26.38
2018-09-11T12:46:44.316Z,26.47
2018-09-11T12:47:44.402Z,26.51
2018-09-11T12:48:43.992Z,26.60
2018-09-11T12:49:43.894Z,26.65
2018-09-11T12:50:43.803Z,26.65
2018-09-11T12:51:43.710Z,26.55